Time;durP1;ratioP1;P1;durP2;ratioP2;P2;SDS_P1;SDS_P2;PMS_P1;PMS_P2;Temp;Humidity;BMP_temperature;BMP_pressure;BME280_temperature;BME280_humidity;BME280_pressure;Samples;Min_cycle;Max_cycle;Signal;HPM_P1;HPM_P2
2024/01/07 00:02:09;;;;;;;6.30;4.93;;;;;;;;;;6182546;23;20177;-81
2024/01/07 00:04:38;;;;;;;7.00;5.17;;;;;;;;;;6182540;23;20245;-80
2024/01/07 00:07:06;;;;;;;7.20;6.43;;;;;;;;;;6182805;23;20197;-80
2024/01/07 00:09:38;;;;;;;6.57;5.90;;;;;;;;;;6182723;23;20198;-80
2024/01/07 00:12:07;;;;;;;6.23;4.27;;;;;;;;;;6184210;23;20178;-81
2024/01/07 00:14:36;;;;;;;7.07;6.37;;;;;;;;;;6182270;23;20482;-80
2024/01/07 00:17:05;;;;;;;5.83;5.17;;;;;;;;;;6183049;23;20199;-80
2024/01/07 00:19:37;;;;;;;5.03;4.57;;;;;;;;;;6182981;23;20185;-80
2024/01/07 00:22:05;;;;;;;6.53;5.93;;;;;;;;;;6183935;23;20372;-81
2024/01/07 00:24:36;;;;;;;6.20;5.57;;;;;;;;;;6182234;23;20215;-80
2024/01/07 00:27:05;;;;;;;6.80;6.10;;;;;;;;;;6182452;23;20270;-80
2024/01/07 00:29:35;;;;;;;6.10;5.50;;;;;;;;;;6182534;23;20192;-81
2024/01/07 00:32:05;;;;;;;5.43;4.93;;;;;;;;;;6182572;23;20180;-80
2024/01/07 00:34:34;;;;;;;8.37;5.47;;;;;;;;;;6181753;23;20179;-80
2024/01/07 00:37:05;;;;;;;4.67;4.27;;;;;;;;;;6182437;23;20259;-80
2024/01/07 00:39:34;;;;;;;5.87;5.37;;;;;;;;;;6183657;23;20167;-80
2024/01/07 00:42:02;;;;;;;6.07;5.47;;;;;;;;;;6183494;23;20175;-80
2024/01/07 00:44:31;;;;;;;6.20;4.90;;;;;;;;;;6183233;23;20235;-81
2024/01/07 00:46:59;;;;;;;7.63;6.13;;;;;;;;;;6183488;23;20177;-80
2024/01/07 00:49:30;;;;;;;8.47;7.73;;;;;;;;;;6181830;23;20283;-81
2024/01/07 00:51:59;;;;;;;8.47;5.73;;;;;;;;;;6182254;23;20189;-80
2024/01/07 00:54:29;;;;;;;7.37;6.60;;;;;;;;;;6181425;23;20177;-80
2024/01/07 00:56:58;;;;;;;6.60;5.13;;;;;;;;;;6182006;23;20179;-81
2024/01/07 00:59:26;;;;;;;6.40;5.17;;;;;;;;;;6182431;23;20184;-80
2024/01/07 01:01:58;;;;;;;5.60;5.00;;;;;;;;;;6182506;23;20233;-80
2024/01/07 01:04:26;;;;;;;9.97;7.10;;;;;;;;;;6181365;23;20244;-81
2024/01/07 01:06:56;;;;;;;6.93;6.20;;;;;;;;;;6182118;23;20171;-80
2024/01/07 01:09:25;;;;;;;7.57;6.73;;;;;;;;;;6181452;23;20195;-80
2024/01/07 01:11:53;;;;;;;7.03;5.83;;;;;;;;;;6183402;23;20203;-81
2024/01/07 01:14:22;;;;;;;8.03;7.13;;;;;;;;;;6180951;23;20176;-81
2024/01/07 01:16:50;;;;;;;8.07;5.97;;;;;;;;;;6181883;23;20229;-81
2024/01/07 01:19:20;;;;;;;7.40;6.63;;;;;;;;;;6183319;23;20192;-80
2024/01/07 01:21:48;;;;;;;7.53;6.77;;;;;;;;;;6182043;23;20199;-81
2024/01/07 01:24:19;;;;;;;9.00;7.37;;;;;;;;;;6181548;23;20204;-80
2024/01/07 01:26:47;;;;;;;7.60;6.50;;;;;;;;;;6181449;23;20170;-81
2024/01/07 01:29:16;;;;;;;8.73;7.90;;;;;;;;;;6181716;23;20186;-80
2024/01/07 01:31:44;;;;;;;5.73;5.20;;;;;;;;;;6182628;23;20187;-80
2024/01/07 01:34:13;;;;;;;6.83;6.07;;;;;;;;;;6182642;23;20221;-81
2024/01/07 01:36:42;;;;;;;6.87;5.77;;;;;;;;;;6181726;23;20183;-80
2024/01/07 01:39:10;;;;;;;5.93;5.37;;;;;;;;;;6182280;23;20176;-81
2024/01/07 01:41:40;;;;;;;8.07;5.20;;;;;;;;;;6183451;23;20252;-80
2024/01/07 01:44:09;;;;;;;6.47;5.73;;;;;;;;;;6183138;23;20186;-81
2024/01/07 01:46:37;;;;;;;6.87;5.80;;;;;;;;;;6181543;23;20176;-80
2024/01/07 01:49:06;;;;;;;7.40;6.23;;;;;;;;;;6181982;23;20196;-81
2024/01/07 01:51:35;;;;;;;10.70;7.03;;;;;;;;;;6181882;23;20204;-80
2024/01/07 01:54:04;;;;;;;7.37;6.40;;;;;;;;;;6181420;23;20173;-81
2024/01/07 01:56:33;;;;;;;6.57;5.63;;;;;;;;;;6181458;23;20195;-80
2024/01/07 01:59:03;;;;;;;6.30;5.70;;;;;;;;;;6182219;23;20179;-81
2024/01/07 02:01:32;;;;;;;8.33;6.90;;;;;;;;;;6183432;23;20216;-81
2024/01/07 02:04:00;;;;;;;6.33;5.73;;;;;;;;;;6181562;23;20205;-80
2024/01/07 02:06:29;;;;;;;5.27;4.77;;;;;;;;;;6180820;23;20177;-80
2024/01/07 02:08:58;;;;;;;6.93;6.23;;;;;;;;;;6182730;23;20229;-80
2024/01/07 02:11:26;;;;;;;10.23;7.83;;;;;;;;;;6183286;23;20237;-80
2024/01/07 02:13:55;;;;;;;6.47;5.63;;;;;;;;;;6181288;23;20178;-80
2024/01/07 02:16:25;;;;;;;7.43;6.73;;;;;;;;;;6182210;23;20438;-81
2024/01/07 02:18:53;;;;;;;7.87;6.70;;;;;;;;;;6181101;23;20176;-80
2024/01/07 02:21:22;;;;;;;7.17;5.67;;;;;;;;;;6181441;23;20171;-80
2024/01/07 02:23:51;;;;;;;7.93;7.10;;;;;;;;;;6184923;23;20170;-80
2024/01/07 02:26:20;;;;;;;5.03;4.57;;;;;;;;;;6183212;23;20272;-81
2024/01/07 02:28:50;;;;;;;5.80;5.17;;;;;;;;;;6183099;23;20372;-81
2024/01/07 02:31:19;;;;;;;7.73;7.00;;;;;;;;;;6184649;23;20193;-80
2024/01/07 02:33:47;;;;;;;5.70;5.10;;;;;;;;;;6183656;23;20216;-80
2024/01/07 02:36:17;;;;;;;5.63;4.67;;;;;;;;;;6182922;23;20204;-80
2024/01/07 02:38:45;;;;;;;8.67;5.77;;;;;;;;;;6182485;23;20176;-81
2024/01/07 02:41:14;;;;;;;4.60;4.23;;;;;;;;;;6183507;23;20178;-81
2024/01/07 02:43:44;;;;;;;6.30;5.70;;;;;;;;;;6183534;23;20168;-80
2024/01/07 02:46:12;;;;;;;7.67;5.93;;;;;;;;;;6183127;23;20184;-81
2024/01/07 02:48:41;;;;;;;7.40;6.10;;;;;;;;;;6183854;23;20187;-80
2024/01/07 02:51:10;;;;;;;10.50;7.80;;;;;;;;;;6182049;23;20201;-81
2024/01/07 02:53:38;;;;;;;7.97;6.90;;;;;;;;;;6182776;23;20232;-80
2024/01/07 02:56:08;;;;;;;10.03;5.40;;;;;;;;;;6181153;23;20212;-80
2024/01/07 02:58:37;;;;;;;7.00;6.30;;;;;;;;;;6181058;23;20228;-80
2024/01/07 03:01:09;;;;;;;7.47;5.43;;;;;;;;;;6182637;23;20163;-81
2024/01/07 03:03:38;;;;;;;6.17;5.23;;;;;;;;;;6181756;23;20181;-80
2024/01/07 03:06:07;;;;;;;9.53;8.33;;;;;;;;;;6181523;23;20177;-81
2024/01/07 03:08:36;;;;;;;5.47;4.63;;;;;;;;;;6181887;23;20179;-81
2024/01/07 03:11:06;;;;;;;9.50;6.43;;;;;;;;;;6182598;23;20250;-80
2024/01/07 03:13:37;;;;;;;6.60;5.97;;;;;;;;;;6181093;23;20182;-80
2024/01/07 03:16:08;;;;;;;7.97;6.17;;;;;;;;;;6182773;23;20176;-81
2024/01/07 03:18:36;;;;;;;11.27;8.40;;;;;;;;;;6180990;23;20176;-80
2024/01/07 03:21:05;;;;;;;6.60;5.90;;;;;;;;;;6181508;23;20219;-80
2024/01/07 03:23:33;;;;;;;10.00;9.00;;;;;;;;;;6181014;23;20176;-80
2024/01/07 03:26:02;;;;;;;11.07;7.47;;;;;;;;;;6181750;23;20184;-81
2024/01/07 03:28:30;;;;;;;8.70;6.63;;;;;;;;;;6182417;23;20182;-81
2024/01/07 03:30:59;;;;;;;8.50;6.67;;;;;;;;;;6181186;23;20206;-80
2024/01/07 03:33:29;;;;;;;8.67;7.77;;;;;;;;;;6182288;23;20178;-80
2024/01/07 03:35:58;;;;;;;6.03;5.50;;;;;;;;;;6181240;23;20177;-81
2024/01/07 03:38:26;;;;;;;6.50;5.90;;;;;;;;;;6180975;23;20443;-81
2024/01/07 03:40:55;;;;;;;8.30;6.07;;;;;;;;;;6182167;23;20164;-81
2024/01/07 03:43:23;;;;;;;7.03;6.20;;;;;;;;;;6181459;23;20238;-81
2024/01/07 03:45:52;;;;;;;5.33;4.90;;;;;;;;;;6181411;23;20208;-80
2024/01/07 03:48:20;;;;;;;7.50;6.70;;;;;;;;;;6180682;23;20178;-81
2024/01/07 03:50:50;;;;;;;7.70;7.00;;;;;;;;;;6133069;23;1114520;-80
2024/01/07 03:53:19;;;;;;;8.70;7.07;;;;;;;;;;6183162;23;20177;-81
2024/01/07 03:55:48;;;;;;;5.90;5.00;;;;;;;;;;6182464;23;20278;-81
2024/01/07 03:58:16;;;;;;;6.37;5.77;;;;;;;;;;6182968;23;20386;-80
2024/01/07 04:00:45;;;;;;;7.43;6.43;;;;;;;;;;6183552;23;20173;-80
2024/01/07 04:03:13;;;;;;;5.20;4.80;;;;;;;;;;6183140;23;20182;-80
2024/01/07 04:05:42;;;;;;;8.47;7.77;;;;;;;;;;6184376;23;20200;-81
2024/01/07 04:08:15;;;;;;;8.50;7.47;;;;;;;;;;6183249;23;20239;-81
2024/01/07 04:10:45;;;;;;;7.33;6.63;;;;;;;;;;6183478;23;20231;-81
2024/01/07 04:13:13;;;;;;;7.13;6.43;;;;;;;;;;6182778;23;20175;-81
2024/01/07 04:15:42;;;;;;;6.43;5.83;;;;;;;;;;6184119;23;20222;-81
2024/01/07 04:18:11;;;;;;;7.37;6.63;;;;;;;;;;6182671;23;20229;-81
2024/01/07 04:20:40;;;;;;;7.70;7.00;;;;;;;;;;6181512;23;20173;-80
2024/01/07 04:23:08;;;;;;;6.87;6.13;;;;;;;;;;6184391;23;20172;-81
2024/01/07 04:25:40;;;;;;;8.27;7.47;;;;;;;;;;6182369;23;20190;-81
2024/01/07 04:28:09;;;;;;;6.40;5.80;;;;;;;;;;6183899;23;20202;-81
2024/01/07 04:30:38;;;;;;;5.53;5.03;;;;;;;;;;6181699;23;20177;-80
2024/01/07 04:33:06;;;;;;;6.10;5.50;;;;;;;;;;6182201;23;20211;-80
2024/01/07 04:35:35;;;;;;;7.60;6.87;;;;;;;;;;6182674;23;20180;-81
2024/01/07 04:38:04;;;;;;;7.70;6.90;;;;;;;;;;6182258;23;20177;-80
2024/01/07 04:40:32;;;;;;;5.50;5.00;;;;;;;;;;6183769;23;20177;-81
2024/01/07 04:43:02;;;;;;;9.77;7.07;;;;;;;;;;6182796;23;20211;-80
2024/01/07 04:45:31;;;;;;;7.93;7.07;;;;;;;;;;6182478;23;20268;-80
2024/01/07 04:47:59;;;;;;;6.57;5.97;;;;;;;;;;6182306;23;20171;-80
2024/01/07 04:50:28;;;;;;;8.20;7.03;;;;;;;;;;6181412;23;20215;-81
2024/01/07 04:52:56;;;;;;;5.63;5.10;;;;;;;;;;6181415;23;20193;-80
2024/01/07 04:55:25;;;;;;;12.87;8.50;;;;;;;;;;6182700;23;20171;-80
2024/01/07 04:57:53;;;;;;;7.50;6.47;;;;;;;;;;6182489;23;20176;-80
2024/01/07 05:00:23;;;;;;;11.87;7.67;;;;;;;;;;6183447;23;20223;-80
2024/01/07 05:02:52;;;;;;;7.20;5.67;;;;;;;;;;6181051;23;20231;-81
2024/01/07 05:05:20;;;;;;;7.97;6.80;;;;;;;;;;6182294;23;20173;-80
2024/01/07 05:07:49;;;;;;;7.17;6.47;;;;;;;;;;6183191;23;20180;-80
2024/01/07 05:10:18;;;;;;;12.53;8.83;;;;;;;;;;6183101;23;20169;-80
2024/01/07 05:12:46;;;;;;;8.30;7.47;;;;;;;;;;6180902;23;20193;-81
2024/01/07 05:15:15;;;;;;;9.97;6.93;;;;;;;;;;6181872;23;20187;-80
2024/01/07 05:17:45;;;;;;;11.40;7.23;;;;;;;;;;6183312;23;20214;-81
2024/01/07 05:20:13;;;;;;;12.97;7.67;;;;;;;;;;6181723;23;20180;-80
2024/01/07 05:22:42;;;;;;;17.47;8.43;;;;;;;;;;6181374;23;20168;-81
2024/01/07 05:25:10;;;;;;;11.30;8.70;;;;;;;;;;6183271;23;20232;-80
2024/01/07 05:27:41;;;;;;;11.57;9.07;;;;;;;;;;6182295;23;20187;-81
2024/01/07 05:30:10;;;;;;;7.43;6.63;;;;;;;;;;6183544;23;20212;-81
2024/01/07 05:32:39;;;;;;;9.83;7.03;;;;;;;;;;6181053;23;20282;-81
2024/01/07 05:35:10;;;;;;;9.87;7.77;;;;;;;;;;6181619;23;20177;-81
2024/01/07 05:37:40;;;;;;;8.80;5.73;;;;;;;;;;6183190;23;20267;-80
2024/01/07 05:40:09;;;;;;;9.67;8.67;;;;;;;;;;6183428;23;20173;-80
2024/01/07 05:42:38;;;;;;;8.67;7.77;;;;;;;;;;6180953;23;20173;-81
2024/01/07 05:45:07;;;;;;;9.87;7.37;;;;;;;;;;6182777;23;20175;-81
2024/01/07 05:47:35;;;;;;;8.90;6.50;;;;;;;;;;6181727;23;20207;-80
2024/01/07 05:50:05;;;;;;;8.30;6.93;;;;;;;;;;6181718;23;20198;-80
2024/01/07 05:52:35;;;;;;;6.40;5.53;;;;;;;;;;6181489;23;20202;-80
2024/01/07 05:55:03;;;;;;;8.70;6.00;;;;;;;;;;6181637;23;20196;-80
2024/01/07 05:57:32;;;;;;;6.60;6.10;;;;;;;;;;6183184;23;20168;-80
2024/01/07 06:00:01;;;;;;;5.60;4.80;;;;;;;;;;6183587;23;20167;-80
2024/01/07 06:02:29;;;;;;;7.33;6.57;;;;;;;;;;6182896;23;20163;-80
2024/01/07 06:04:58;;;;;;;6.37;5.73;;;;;;;;;;6182819;23;20183;-80
2024/01/07 06:07:26;;;;;;;5.97;5.30;;;;;;;;;;6183017;23;20201;-80
2024/01/07 06:09:56;;;;;;;5.77;4.67;;;;;;;;;;6183429;23;20188;-81
2024/01/07 06:12:25;;;;;;;6.43;5.80;;;;;;;;;;6181445;23;20204;-81
2024/01/07 06:14:53;;;;;;;7.00;6.40;;;;;;;;;;6182548;23;20196;-81
2024/01/07 06:17:22;;;;;;;5.27;4.77;;;;;;;;;;6182003;23;20250;-81
2024/01/07 06:19:50;;;;;;;6.67;6.00;;;;;;;;;;6182012;23;20180;-81
2024/01/07 06:22:19;;;;;;;6.17;5.20;;;;;;;;;;6181213;23;20187;-80
2024/01/07 06:24:48;;;;;;;7.80;5.77;;;;;;;;;;6181064;23;20275;-81
2024/01/07 06:27:18;;;;;;;7.13;4.90;;;;;;;;;;6183116;23;20183;-80
2024/01/07 06:29:46;;;;;;;7.30;5.23;;;;;;;;;;6182878;23;20222;-80
2024/01/07 06:32:15;;;;;;;6.07;5.50;;;;;;;;;;6182852;23;20188;-80
2024/01/07 06:34:43;;;;;;;5.87;5.33;;;;;;;;;;6181012;23;20233;-80
2024/01/07 06:37:12;;;;;;;6.10;5.00;;;;;;;;;;6181389;23;20173;-80
2024/01/07 06:39:41;;;;;;;6.77;6.17;;;;;;;;;;6181711;23;20190;-80
2024/01/07 06:42:09;;;;;;;6.40;5.80;;;;;;;;;;6181721;23;20207;-81
2024/01/07 06:44:39;;;;;;;6.03;5.53;;;;;;;;;;6182199;23;20252;-81
2024/01/07 06:47:08;;;;;;;6.17;5.43;;;;;;;;;;6181633;23;20176;-81
2024/01/07 06:49:36;;;;;;;6.13;4.77;;;;;;;;;;6181453;23;20207;-80
2024/01/07 06:52:05;;;;;;;6.93;5.83;;;;;;;;;;6181450;23;20212;-80
2024/01/07 06:54:34;;;;;;;6.23;5.13;;;;;;;;;;6180818;23;20263;-81
2024/01/07 06:57:03;;;;;;;5.97;5.47;;;;;;;;;;6181374;23;20266;-80
2024/01/07 06:59:31;;;;;;;6.30;5.70;;;;;;;;;;6181239;23;20204;-80
2024/01/07 07:02:01;;;;;;;6.10;5.07;;;;;;;;;;6182961;23;20255;-80
2024/01/07 07:04:30;;;;;;;6.30;5.70;;;;;;;;;;6182064;23;20185;-80
2024/01/07 07:07:00;;;;;;;4.53;4.03;;;;;;;;;;6181659;23;20223;-80
2024/01/07 07:09:28;;;;;;;5.87;5.30;;;;;;;;;;6182965;23;20179;-81
2024/01/07 07:11:57;;;;;;;5.33;4.77;;;;;;;;;;6183731;23;20180;-80
2024/01/07 07:14:25;;;;;;;4.73;4.33;;;;;;;;;;6182401;23;20194;-81
2024/01/07 07:16:54;;;;;;;7.67;4.93;;;;;;;;;;6183986;23;20172;-81
2024/01/07 07:19:24;;;;;;;5.57;5.07;;;;;;;;;;6183320;23;20172;-81
2024/01/07 07:21:52;;;;;;;4.90;4.43;;;;;;;;;;6184552;23;20174;-80
2024/01/07 07:24:22;;;;;;;5.93;5.10;;;;;;;;;;6183822;23;20166;-81
2024/01/07 07:26:51;;;;;;;7.50;6.07;;;;;;;;;;6182704;23;20271;-81
2024/01/07 07:29:20;;;;;;;5.10;4.00;;;;;;;;;;6182936;23;20262;-80
2024/01/07 07:31:48;;;;;;;5.60;4.30;;;;;;;;;;6183925;23;20171;-81
2024/01/07 07:34:17;;;;;;;5.40;4.60;;;;;;;;;;6182853;23;20195;-81
2024/01/07 07:36:47;;;;;;;5.23;4.73;;;;;;;;;;6182945;23;20192;-81
2024/01/07 07:39:15;;;;;;;5.13;4.67;;;;;;;;;;6183212;23;20173;-81
2024/01/07 07:41:44;;;;;;;4.60;4.20;;;;;;;;;;6182771;23;20214;-81
2024/01/07 07:44:12;;;;;;;7.07;5.27;;;;;;;;;;6182441;23;20171;-81
2024/01/07 07:46:41;;;;;;;4.50;4.10;;;;;;;;;;6182323;23;20222;-80
2024/01/07 07:49:11;;;;;;;5.10;4.70;;;;;;;;;;6182486;23;20207;-81
2024/01/07 07:51:41;;;;;;;5.50;4.90;;;;;;;;;;6183114;23;20204;-81
2024/01/07 07:54:17;;;;;;;6.97;4.90;;;;;;;;;;6182472;23;20191;-81
2024/01/07 07:56:45;;;;;;;5.43;3.93;;;;;;;;;;6182425;23;20175;-80
2024/01/07 07:59:14;;;;;;;5.40;4.97;;;;;;;;;;6182818;23;20214;-81
2024/01/07 08:01:42;;;;;;;6.30;5.40;;;;;;;;;;6183008;23;20172;-81
2024/01/07 08:04:11;;;;;;;5.20;4.53;;;;;;;;;;6182801;23;20168;-81
2024/01/07 08:06:40;;;;;;;5.30;4.80;;;;;;;;;;6183632;23;20199;-81
2024/01/07 08:09:08;;;;;;;8.07;3.77;;;;;;;;;;6182222;23;20176;-80
2024/01/07 08:11:38;;;;;;;4.87;4.47;;;;;;;;;;6182499;23;20176;-80
2024/01/07 08:14:09;;;;;;;4.20;3.80;;;;;;;;;;6182434;23;20233;-81
2024/01/07 08:16:37;;;;;;;4.33;3.90;;;;;;;;;;6182174;23;20180;-81
2024/01/07 08:19:06;;;;;;;4.23;3.37;;;;;;;;;;6181481;23;20176;-81
2024/01/07 08:21:35;;;;;;;3.87;3.17;;;;;;;;;;6182835;23;20176;-81
2024/01/07 08:24:04;;;;;;;6.40;4.03;;;;;;;;;;6184167;23;20220;-81
2024/01/07 08:26:32;;;;;;;4.40;3.57;;;;;;;;;;6183328;23;20171;-80
2024/01/07 08:29:02;;;;;;;4.37;3.67;;;;;;;;;;6183396;23;20306;-81
2024/01/07 08:31:31;;;;;;;3.83;3.50;;;;;;;;;;6183009;23;20184;-80
2024/01/07 08:34:00;;;;;;;3.67;3.37;;;;;;;;;;6183590;23;20185;-80
2024/01/07 08:36:30;;;;;;;4.07;3.23;;;;;;;;;;6182537;23;20182;-81
2024/01/07 08:38:58;;;;;;;3.90;3.40;;;;;;;;;;6182967;23;20175;-81
2024/01/07 08:41:27;;;;;;;4.20;3.87;;;;;;;;;;6182241;23;20260;-81
2024/01/07 08:43:55;;;;;;;5.97;3.67;;;;;;;;;;6182157;23;20176;-80
2024/01/07 08:46:25;;;;;;;4.03;3.63;;;;;;;;;;6182457;23;20245;-81
2024/01/07 08:48:54;;;;;;;3.80;3.40;;;;;;;;;;6183165;23;20188;-81
2024/01/07 08:51:22;;;;;;;3.47;2.90;;;;;;;;;;6183887;23;20246;-80
2024/01/07 08:53:51;;;;;;;4.03;3.63;;;;;;;;;;6183855;23;20187;-81
2024/01/07 08:56:19;;;;;;;6.03;3.20;;;;;;;;;;6182020;23;20176;-81
2024/01/07 08:58:48;;;;;;;3.03;2.83;;;;;;;;;;6181445;23;20182;-81
2024/01/07 09:01:19;;;;;;;4.03;3.47;;;;;;;;;;6182420;23;20172;-81
2024/01/07 09:03:49;;;;;;;3.20;3.00;;;;;;;;;;6183528;23;20164;-81
2024/01/07 09:06:18;;;;;;;3.57;2.77;;;;;;;;;;6183955;23;20260;-81
2024/01/07 09:08:46;;;;;;;3.60;3.30;;;;;;;;;;6181639;23;20503;-81
2024/01/07 09:11:16;;;;;;;5.67;2.80;;;;;;;;;;6182931;23;20256;-80
2024/01/07 09:13:44;;;;;;;4.03;3.67;;;;;;;;;;6182321;23;20200;-80
2024/01/07 09:16:13;;;;;;;3.43;3.13;;;;;;;;;;6183962;23;20179;-80
2024/01/07 09:18:43;;;;;;;4.20;3.80;;;;;;;;;;6182910;23;20168;-81
2024/01/07 09:21:15;;;;;;;3.07;2.80;;;;;;;;;;6183385;23;20164;-81
2024/01/07 09:23:45;;;;;;;4.97;3.00;;;;;;;;;;6183663;23;20199;-80
2024/01/07 09:26:13;;;;;;;3.77;3.30;;;;;;;;;;6183654;23;20200;-81
2024/01/07 09:28:42;;;;;;;2.30;2.20;;;;;;;;;;6181687;23;20172;-81
2024/01/07 09:31:13;;;;;;;3.20;2.83;;;;;;;;;;6181850;23;20259;-81
2024/01/07 09:33:41;;;;;;;2.90;2.70;;;;;;;;;;6182985;23;20176;-81
2024/01/07 09:36:10;;;;;;;3.07;2.50;;;;;;;;;;6181710;23;20205;-81
2024/01/07 09:39:01;;;;;;;3.17;2.87;;;;;;;;;;6181567;23;20184;-81
2024/01/07 09:41:29;;;;;;;3.80;2.23;;;;;;;;;;6181837;23;20188;-81
2024/01/07 09:43:59;;;;;;;3.83;2.97;;;;;;;;;;6182424;23;20184;-81
2024/01/07 09:46:27;;;;;;;2.90;2.70;;;;;;;;;;6181852;23;20177;-81
2024/01/07 09:48:58;;;;;;;5.73;3.60;;;;;;;;;;6181482;23;20201;-81
2024/01/07 09:51:28;;;;;;;2.83;2.63;;;;;;;;;;6180918;23;20222;-81
2024/01/07 09:53:58;;;;;;;2.40;2.20;;;;;;;;;;6181735;23;20192;-81
2024/01/07 09:56:31;;;;;;;3.87;3.03;;;;;;;;;;6182326;23;20235;-81
2024/01/07 09:59:01;;;;;;;3.23;2.93;;;;;;;;;;6181421;23;20367;-81
2024/01/07 10:01:29;;;;;;;3.23;2.80;;;;;;;;;;6181415;23;20201;-81
2024/01/07 10:03:58;;;;;;;2.70;2.50;;;;;;;;;;6182016;23;20240;-80
2024/01/07 10:06:27;;;;;;;1.97;1.87;;;;;;;;;;6181539;23;20175;-81
2024/01/07 10:08:55;;;;;;;3.83;3.07;;;;;;;;;;6183160;23;20167;-81
2024/01/07 10:11:24;;;;;;;2.43;2.27;;;;;;;;;;6181421;23;20176;-81
2024/01/07 10:13:54;;;;;;;3.10;2.90;;;;;;;;;;6181545;23;20267;-81
2024/01/07 10:16:23;;;;;;;3.37;3.10;;;;;;;;;;6181361;23;20263;-81
2024/01/07 10:18:51;;;;;;;2.90;2.70;;;;;;;;;;6181654;23;20186;-81
2024/01/07 10:21:20;;;;;;;3.40;3.10;;;;;;;;;;6181210;23;20173;-81
2024/01/07 10:23:49;;;;;;;3.37;3.13;;;;;;;;;;6181388;23;20181;-80
2024/01/07 10:26:17;;;;;;;3.43;2.77;;;;;;;;;;6182032;23;20181;-81
2024/01/07 10:28:59;;;;;;;2.87;2.60;;;;;;;;;;6182149;23;20177;-81
2024/01/07 10:31:27;;;;;;;2.80;2.60;;;;;;;;;;6181094;23;20176;-81
2024/01/07 10:33:56;;;;;;;3.37;3.07;;;;;;;;;;6181754;23;20226;-81
2024/01/07 10:36:26;;;;;;;2.80;2.60;;;;;;;;;;6183035;23;20224;-81
2024/01/07 10:38:56;;;;;;;4.73;2.90;;;;;;;;;;6183211;23;20251;-80
2024/01/07 10:41:25;;;;;;;2.93;2.73;;;;;;;;;;6181207;23;20176;-81
2024/01/07 10:43:56;;;;;;;3.67;3.37;;;;;;;;;;6182182;23;20268;-80
2024/01/07 10:46:29;;;;;;;4.00;3.50;;;;;;;;;;6183503;23;20176;-81
2024/01/07 10:49:01;;;;;;;4.63;3.10;;;;;;;;;;6185003;23;20198;-80
2024/01/07 10:51:30;;;;;;;3.77;3.07;;;;;;;;;;6184394;23;20212;-81
2024/01/07 10:53:59;;;;;;;3.30;3.00;;;;;;;;;;6183263;23;20175;-80
2024/01/07 10:56:34;;;;;;;3.30;3.07;;;;;;;;;;6183223;23;20232;-81
2024/01/07 10:59:03;;;;;;;2.27;2.17;;;;;;;;;;6184855;23;20210;-81
2024/01/07 11:01:34;;;;;;;2.83;2.63;;;;;;;;;;6183070;23;20187;-81
2024/01/07 11:04:06;;;;;;;2.93;2.73;;;;;;;;;;6183381;23;20173;-81
2024/01/07 11:06:38;;;;;;;3.13;2.50;;;;;;;;;;6184433;23;20167;-81
2024/01/07 11:09:13;;;;;;;3.27;2.70;;;;;;;;;;6183513;23;20176;-81
2024/01/07 11:11:43;;;;;;;2.60;2.43;;;;;;;;;;6182909;23;20172;-81
2024/01/07 11:14:27;;;;;;;3.00;2.70;;;;;;;;;;6182459;23;20214;-81
2024/01/07 11:16:57;;;;;;;3.40;2.63;;;;;;;;;;6182368;23;20207;-81
2024/01/07 11:19:25;;;;;;;2.53;2.30;;;;;;;;;;6183594;23;20182;-80
2024/01/07 11:21:54;;;;;;;3.30;2.13;;;;;;;;;;6182833;23;20179;-80
2024/01/07 11:24:37;;;;;;;3.20;2.50;;;;;;;;;;6182492;23;20245;-80
2024/01/07 11:27:06;;;;;;;2.30;2.20;;;;;;;;;;6183430;23;20178;-81
2024/01/07 11:29:34;;;;;;;2.17;1.97;;;;;;;;;;6183497;23;20180;-80
2024/01/07 11:32:08;;;;;;;2.47;2.27;;;;;;;;;;6182622;23;20261;-81
2024/01/07 11:34:43;;;;;;;3.23;2.90;;;;;;;;;;6183678;23;20171;-81
2024/01/07 11:37:13;;;;;;;2.57;2.37;;;;;;;;;;6183011;23;20205;-80
2024/01/07 11:39:44;;;;;;;2.90;2.70;;;;;;;;;;6184889;23;20174;-80
2024/01/07 11:42:13;;;;;;;2.33;2.13;;;;;;;;;;6183917;23;20171;-81
2024/01/07 11:44:48;;;;;;;2.50;2.30;;;;;;;;;;6183538;23;20221;-81
2024/01/07 11:47:18;;;;;;;2.17;2.03;;;;;;;;;;6182753;23;20187;-80
2024/01/07 11:49:49;;;;;;;2.50;2.30;;;;;;;;;;6182594;23;20279;-81
2024/01/07 11:52:18;;;;;;;2.50;2.30;;;;;;;;;;6182150;23;20215;-80
2024/01/07 11:54:46;;;;;;;2.67;2.47;;;;;;;;;;6181696;23;20187;-81
2024/01/07 11:57:15;;;;;;;2.17;2.00;;;;;;;;;;6182717;23;20185;-81
2024/01/07 11:59:44;;;;;;;3.77;2.70;;;;;;;;;;6182943;23;20179;-81
2024/01/07 12:02:14;;;;;;;4.23;2.10;;;;;;;;;;6182453;23;20207;-81
2024/01/07 12:04:44;;;;;;;1.97;1.87;;;;;;;;;;6183171;23;20254;-80
2024/01/07 12:07:14;;;;;;;2.23;2.03;;;;;;;;;;6183197;23;20177;-81
2024/01/07 12:09:47;;;;;;;2.50;2.23;;;;;;;;;;6183011;23;20174;-80
2024/01/07 12:12:15;;;;;;;2.53;2.33;;;;;;;;;;6183764;23;20171;-81
2024/01/07 12:14:44;;;;;;;2.60;2.40;;;;;;;;;;6182015;23;20170;-80
2024/01/07 12:17:12;;;;;;;1.97;1.87;;;;;;;;;;6182535;23;20198;-81
2024/01/07 12:19:45;;;;;;;2.53;2.20;;;;;;;;;;6182411;23;20175;-80
2024/01/07 12:22:14;;;;;;;4.63;2.57;;;;;;;;;;6182355;23;20200;-81
2024/01/07 12:24:44;;;;;;;2.60;2.40;;;;;;;;;;6182313;23;20182;-81
2024/01/07 12:27:14;;;;;;;2.63;2.20;;;;;;;;;;6182592;23;20180;-81
2024/01/07 12:29:43;;;;;;;2.20;2.03;;;;;;;;;;6183019;23;20185;-81
2024/01/07 12:32:11;;;;;;;2.90;2.33;;;;;;;;;;6182615;23;20179;-81
2024/01/07 12:34:42;;;;;;;2.17;1.93;;;;;;;;;;6183742;23;20218;-81
2024/01/07 12:37:15;;;;;;;1.73;1.63;;;;;;;;;;6183783;23;20223;-81
2024/01/07 12:39:44;;;;;;;2.33;1.80;;;;;;;;;;6184271;23;20183;-80
2024/01/07 12:42:13;;;;;;;2.30;2.10;;;;;;;;;;6182811;23;20189;-81
2024/01/07 12:44:41;;;;;;;2.63;2.43;;;;;;;;;;6183148;23;20247;-81
2024/01/07 12:47:12;;;;;;;2.43;2.23;;;;;;;;;;6181706;23;20173;-80
2024/01/07 12:49:41;;;;;;;2.47;2.27;;;;;;;;;;6182297;23;20326;-80
2024/01/07 12:52:10;;;;;;;3.03;2.63;;;;;;;;;;6182281;23;20307;-81
2024/01/07 12:54:40;;;;;;;2.27;2.13;;;;;;;;;;6181971;23;20184;-81
2024/01/07 12:57:08;;;;;;;2.23;2.07;;;;;;;;;;6183404;23;20196;-81
2024/01/07 12:59:37;;;;;;;3.07;2.10;;;;;;;;;;6183932;23;20197;-80
2024/01/07 13:02:06;;;;;;;2.60;2.43;;;;;;;;;;6182343;23;20177;-80
2024/01/07 13:04:34;;;;;;;3.13;2.20;;;;;;;;;;6183479;23;20175;-81
2024/01/07 13:07:03;;;;;;;2.20;2.00;;;;;;;;;;6181204;23;20268;-81
2024/01/07 13:09:33;;;;;;;2.50;2.30;;;;;;;;;;6183832;23;20206;-81
2024/01/07 13:12:06;;;;;;;2.90;2.30;;;;;;;;;;6183235;23;20175;-81
2024/01/07 13:14:34;;;;;;;2.23;2.13;;;;;;;;;;6181806;23;20188;-81
2024/01/07 13:17:03;;;;;;;3.03;2.50;;;;;;;;;;6183099;23;20218;-81
2024/01/07 13:19:32;;;;;;;1.80;1.70;;;;;;;;;;6182056;23;20279;-81
2024/01/07 13:22:01;;;;;;;1.97;1.87;;;;;;;;;;6182017;23;20215;-81
2024/01/07 13:24:30;;;;;;;2.40;2.20;;;;;;;;;;6181771;23;20263;-80
2024/01/07 13:26:59;;;;;;;2.37;2.27;;;;;;;;;;6182682;23;20186;-81
2024/01/07 13:29:28;;;;;;;2.60;2.40;;;;;;;;;;6181811;23;20176;-81
2024/01/07 13:31:57;;;;;;;1.87;1.77;;;;;;;;;;6182066;23;20202;-81
2024/01/07 13:34:26;;;;;;;3.93;3.07;;;;;;;;;;6182981;23;20172;-80
2024/01/07 13:36:55;;;;;;;2.27;2.10;;;;;;;;;;6181380;23;20198;-80
2024/01/07 13:39:24;;;;;;;2.67;2.43;;;;;;;;;;6181697;23;20183;-80
2024/01/07 13:41:54;;;;;;;2.60;2.40;;;;;;;;;;6181969;23;20172;-81
2024/01/07 13:44:22;;;;;;;3.93;2.30;;;;;;;;;;6182984;23;20210;-80
2024/01/07 13:46:53;;;;;;;2.70;2.50;;;;;;;;;;6181157;23;20200;-81
2024/01/07 13:49:24;;;;;;;2.80;2.60;;;;;;;;;;6182530;23;20283;-80
2024/01/07 13:51:52;;;;;;;3.37;2.27;;;;;;;;;;6181765;23;20232;-80
2024/01/07 13:54:21;;;;;;;1.90;1.80;;;;;;;;;;6183275;23;20177;-80
2024/01/07 13:56:50;;;;;;;2.73;1.80;;;;;;;;;;6181091;23;20196;-81
2024/01/07 13:59:19;;;;;;;2.60;1.93;;;;;;;;;;6181320;23;20256;-81
2024/01/07 14:01:48;;;;;;;2.53;2.33;;;;;;;;;;6181987;23;20218;-81
2024/01/07 14:04:18;;;;;;;2.30;2.10;;;;;;;;;;6181276;23;20184;-81
2024/01/07 14:06:47;;;;;;;1.83;1.73;;;;;;;;;;6182763;23;20197;-81
2024/01/07 14:09:15;;;;;;;2.60;2.03;;;;;;;;;;6181081;23;20176;-80
2024/01/07 14:11:45;;;;;;;2.03;1.93;;;;;;;;;;6181791;23;20233;-81
2024/01/07 14:14:13;;;;;;;2.33;2.13;;;;;;;;;;6182826;23;20334;-81
2024/01/07 14:16:44;;;;;;;2.53;2.33;;;;;;;;;;6181868;23;20283;-81
2024/01/07 14:19:14;;;;;;;2.10;1.97;;;;;;;;;;6183045;23;20185;-81
2024/01/07 14:21:44;;;;;;;2.53;2.37;;;;;;;;;;6185511;23;20169;-81
2024/01/07 14:24:13;;;;;;;2.43;2.23;;;;;;;;;;6183543;23;20175;-81
2024/01/07 14:26:42;;;;;;;2.10;2.00;;;;;;;;;;6183197;23;20259;-81
2024/01/07 14:29:10;;;;;;;2.50;2.37;;;;;;;;;;6184086;23;20202;-81
2024/01/07 14:31:46;;;;;;;2.27;2.10;;;;;;;;;;6185587;23;20168;-81
2024/01/07 14:34:17;;;;;;;5.00;2.53;;;;;;;;;;6184973;23;20167;-81
2024/01/07 14:36:47;;;;;;;2.40;2.20;;;;;;;;;;6183277;23;20192;-81
2024/01/07 14:39:16;;;;;;;2.53;2.33;;;;;;;;;;6182815;23;20244;-81
2024/01/07 14:41:44;;;;;;;2.20;2.10;;;;;;;;;;6183798;23;20196;-81
2024/01/07 14:44:12;;;;;;;2.33;2.10;;;;;;;;;;6184312;23;20175;-81
2024/01/07 14:46:46;;;;;;;6.07;2.90;;;;;;;;;;6183171;23;20258;-81
2024/01/07 14:49:15;;;;;;;2.93;2.73;;;;;;;;;;6183135;23;20193;-81
2024/01/07 14:51:44;;;;;;;2.57;2.37;;;;;;;;;;6184586;23;20413;-81
2024/01/07 14:54:14;;;;;;;2.20;2.10;;;;;;;;;;6185599;23;20172;-81
2024/01/07 14:56:45;;;;;;;2.03;1.90;;;;;;;;;;6183779;23;20199;-81